Time;durP1;ratioP1;P1;durP2;ratioP2;P2;SDS_P1;SDS_P2;PMS_P1;PMS_P2;Temp;Humidity;BMP_temperature;BMP_pressure;BME280_temperature;BME280_humidity;BME280_pressure;Samples;Min_cycle;Max_cycle;Signal;HPM_P1;HPM_P2
2021/01/29 00:00:10;;;;;;;6.53;4.57;;;4.00;99.90;;;;;;5025882;28;20434;-59
2021/01/29 00:02:35;;;;;;;7.67;5.17;;;4.00;99.90;;;;;;5028604;28;20430;-58
2021/01/29 00:05:01;;;;;;;7.93;4.40;;;4.00;99.90;;;;;;5015790;28;20449;-58
2021/01/29 00:07:27;;;;;;;5.40;4.13;;;4.00;99.90;;;;;;5028621;28;20182;-58
2021/01/29 00:09:54;;;;;;;6.83;4.50;;;4.10;99.90;;;;;;5034809;28;20184;-59
2021/01/29 00:12:24;;;;;;;4.57;4.00;;;4.10;99.90;;;;;;5029783;28;20183;-59
2021/01/29 00:14:51;;;;;;;5.40;3.70;;;4.10;99.90;;;;;;5030362;28;20485;-58
2021/01/29 00:17:16;;;;;;;5.73;3.20;;;4.20;99.90;;;;;;5030043;28;20508;-59
2021/01/29 00:19:42;;;;;;;5.13;3.60;;;4.20;99.90;;;;;;5020842;28;20442;-58
2021/01/29 00:22:09;;;;;;;35.07;5.97;;;4.20;99.90;;;;;;5028217;28;20198;-58
2021/01/29 00:24:34;;;;;;;6.10;3.43;;;4.20;99.90;;;;;;5025586;28;20458;-60
2021/01/29 00:27:00;;;;;;;4.50;3.30;;;4.20;99.90;;;;;;5025528;28;20477;-58
2021/01/29 00:29:26;;;;;;;6.20;2.80;;;4.10;99.90;;;;;;5033863;28;20176;-58
2021/01/29 00:31:51;;;;;;;6.37;3.30;;;4.20;99.90;;;;;;5036547;28;20187;-59
2021/01/29 00:34:17;;;;;;;56.90;6.20;;;4.10;99.90;;;;;;5037038;28;20204;-59
2021/01/29 00:36:43;;;;;;;3.53;3.07;;;4.10;99.90;;;;;;5029474;28;20210;-59
2021/01/29 00:39:08;;;;;;;7.40;4.30;;;4.00;99.90;;;;;;5028315;28;20187;-56
2021/01/29 00:41:34;;;;;;;9.60;5.50;;;4.00;99.90;;;;;;5022436;28;20172;-59
2021/01/29 00:44:00;;;;;;;9.77;5.77;;;4.00;99.90;;;;;;5015292;28;20220;-58
2021/01/29 00:46:26;;;;;;;14.80;6.47;;;3.90;99.90;;;;;;5028499;28;20195;-59
2021/01/29 00:48:51;;;;;;;12.77;8.57;;;3.80;99.90;;;;;;5028920;28;20176;-58
2021/01/29 00:51:17;;;;;;;13.17;7.10;;;3.80;99.90;;;;;;5022097;28;20265;-59
2021/01/29 00:53:43;;;;;;;18.03;8.80;;;3.70;99.90;;;;;;5031386;28;20195;-58
2021/01/29 00:56:09;;;;;;;15.23;7.63;;;3.70;99.90;;;;;;5026319;28;20772;-59
2021/01/29 00:58:35;;;;;;;15.80;8.53;;;3.70;99.90;;;;;;5023122;28;20435;-59
2021/01/29 01:01:01;;;;;;;19.17;8.37;;;3.60;99.90;;;;;;5030641;28;20184;-57
2021/01/29 01:03:27;;;;;;;19.70;9.20;;;3.60;99.90;;;;;;5025862;28;20168;-58
2021/01/29 01:05:53;;;;;;;13.17;7.67;;;3.60;99.90;;;;;;5029094;28;20430;-58
2021/01/29 01:08:19;;;;;;;18.50;9.53;;;3.60;99.90;;;;;;5033454;28;20444;-59
2021/01/29 01:10:45;;;;;;;14.03;7.93;;;3.60;99.90;;;;;;5033891;28;20164;-59
2021/01/29 01:13:11;;;;;;;16.33;8.63;;;3.60;99.90;;;;;;5031973;28;20487;-58
2021/01/29 01:15:36;;;;;;;15.97;8.50;;;3.60;99.90;;;;;;5031980;28;20692;-59
2021/01/29 01:18:05;;;;;;;18.73;8.63;;;3.60;99.90;;;;;;5029140;28;20173;-59
2021/01/29 01:20:34;;;;;;;11.80;7.40;;;3.60;99.90;;;;;;5031656;28;20716;-59
2021/01/29 01:22:59;;;;;;;14.97;8.00;;;3.60;99.90;;;;;;5036044;28;20428;-59
2021/01/29 01:25:25;;;;;;;13.90;7.57;;;3.60;99.90;;;;;;5025722;28;20473;-59
2021/01/29 01:27:52;;;;;;;13.67;7.60;;;3.60;99.90;;;;;;5028517;28;20314;-58
2021/01/29 01:30:25;;;;;;;17.70;8.47;;;3.60;99.90;;;;;;5030076;28;20440;-56
2021/01/29 01:32:50;;;;;;;15.67;9.10;;;3.60;99.90;;;;;;5027421;28;20436;-59
2021/01/29 01:35:18;;;;;;;17.10;7.70;;;3.50;99.90;;;;;;5029502;28;20448;-58
2021/01/29 01:37:48;;;;;;;11.87;7.77;;;3.60;99.90;;;;;;5020154;28;20621;-59
2021/01/29 01:40:15;;;;;;;14.00;7.53;;;3.60;99.90;;;;;;5039087;28;20426;-58
2021/01/29 01:42:41;;;;;;;12.43;6.90;;;3.60;99.90;;;;;;5033124;28;20407;-59
2021/01/29 01:45:42;;;;;;;14.33;6.77;;;3.60;99.90;;;;;;5034807;28;20792;-58
2021/01/29 01:48:11;;;;;;;11.97;6.47;;;3.60;99.90;;;;;;4988857;28;20194;-58
2021/01/29 01:50:47;;;;;;;11.70;5.73;;;3.60;99.90;;;;;;5020355;28;20445;-58
2021/01/29 01:53:24;;;;;;;8.23;5.17;;;3.70;99.90;;;;;;5033099;28;21020;-57
2021/01/29 01:56:16;;;;;;;8.53;5.27;;;3.80;99.90;;;;;;5025456;28;20468;-58
2021/01/29 01:59:04;;;;;;;6.50;4.30;;;3.80;99.90;;;;;;4991932;28;20460;-60
2021/01/29 02:01:31;;;;;;;9.30;5.33;;;3.90;99.90;;;;;;5031770;28;20470;-58
2021/01/29 02:03:58;;;;;;;7.73;4.60;;;3.90;99.90;;;;;;5026155;28;20446;-59
2021/01/29 02:06:27;;;;;;;6.77;4.50;;;4.00;99.90;;;;;;5027109;28;20486;-58
2021/01/29 02:08:57;;;;;;;5.13;3.20;;;4.00;99.90;;;;;;5034371;28;20435;-59
2021/01/29 02:11:23;;;;;;;5.10;3.30;;;4.10;99.90;;;;;;5030557;28;20438;-59
2021/01/29 02:13:51;;;;;;;2.87;2.40;;;4.10;99.90;;;;;;5032323;28;20564;-57
2021/01/29 02:16:28;;;;;;;6.77;3.67;;;4.20;99.90;;;;;;5030457;28;20203;-60
2021/01/29 02:19:03;;;;;;;5.07;3.27;;;4.20;99.90;;;;;;5031898;28;20604;-59
2021/01/29 02:21:50;;;;;;;5.30;3.87;;;4.30;99.90;;;;;;5021965;28;20437;-58
2021/01/29 02:24:44;;;;;;;2.60;2.03;;;4.30;99.90;;;;;;5019999;28;20520;-57
2021/01/29 02:27:44;;;;;;;5.93;3.13;;;4.40;99.90;;;;;;5031258;28;20422;-59
2021/01/29 02:30:25;;;;;;;4.90;2.53;;;4.40;99.90;;;;;;5047274;28;20545;-62
2021/01/29 02:33:09;;;;;;;4.17;2.90;;;4.50;99.90;;;;;;5045035;28;20947;-58
2021/01/29 02:35:41;;;;;;;3.00;2.50;;;4.50;99.90;;;;;;5030877;28;20458;-59
2021/01/29 02:38:45;;;;;;;3.93;2.93;;;4.40;99.90;;;;;;5052711;28;20490;-58
2021/01/29 02:41:27;;;;;;;1.80;1.70;;;4.40;99.90;;;;;;5048315;28;20816;-59
2021/01/29 02:44:29;;;;;;;2.10;1.60;;;4.40;99.90;;;;;;5028151;28;21018;-59
2021/01/29 02:47:01;;;;;;;2.00;1.23;;;4.50;99.90;;;;;;5018202;28;20411;-58
2021/01/29 02:49:56;;;;;;;1.23;1.13;;;4.60;99.90;;;;;;5014962;28;20431;-58
2021/01/29 02:52:25;;;;;;;1.50;1.40;;;4.70;99.90;;;;;;5025034;28;20580;-58
2021/01/29 02:54:56;;;;;;;1.30;1.20;;;4.80;99.90;;;;;;5034846;28;20808;-59
2021/01/29 02:57:33;;;;;;;1.40;1.30;;;4.80;99.90;;;;;;5028990;28;20470;-59
2021/01/29 03:00:17;;;;;;;1.30;1.20;;;4.90;99.90;;;;;;5022914;28;20441;-59
2021/01/29 03:03:04;;;;;;;2.60;1.00;;;5.00;99.90;;;;;;5025896;28;20457;-59
2021/01/29 03:05:35;;;;;;;1.00;0.90;;;5.00;99.90;;;;;;5026722;28;20469;-58
2021/01/29 03:08:07;;;;;;;2.40;1.00;;;5.10;99.90;;;;;;5030674;28;20440;-60
2021/01/29 03:10:43;;;;;;;1.30;1.20;;;5.20;99.90;;;;;;5038056;28;20573;-59
2021/01/29 03:13:15;;;;;;;0.90;0.90;;;5.30;99.90;;;;;;5029056;28;20429;-59
2021/01/29 03:15:52;;;;;;;1.17;1.00;;;5.40;99.90;;;;;;5027721;28;20470;-59
2021/01/29 03:18:27;;;;;;;1.20;1.00;;;5.40;99.90;;;;;;5022157;28;20873;-59
2021/01/29 03:21:15;;;;;;;2.30;1.00;;;5.40;99.90;;;;;;5020981;28;20987;-57
2021/01/29 03:23:50;;;;;;;1.60;1.00;;;5.40;99.90;;;;;;5030396;28;20442;-58
2021/01/29 03:26:25;;;;;;;1.00;0.90;;;5.50;99.90;;;;;;5028599;28;20435;-59
2021/01/29 03:28:56;;;;;;;0.80;0.80;;;5.50;99.90;;;;;;5028269;28;20434;-57
2021/01/29 03:31:23;;;;;;;1.33;1.10;;;5.50;99.90;;;;;;5030631;28;20508;-60
2021/01/29 03:33:58;;;;;;;0.93;0.93;;;5.60;99.90;;;;;;5026356;28;20450;-59
2021/01/29 03:36:31;;;;;;;1.17;1.13;;;5.60;99.90;;;;;;5011704;28;21167;-59
2021/01/29 03:39:10;;;;;;;1.27;1.00;;;5.60;99.90;;;;;;5033347;28;20434;-59
2021/01/29 03:41:40;;;;;;;1.30;1.00;;;5.60;99.90;;;;;;5029832;28;20517;-56
2021/01/29 03:44:24;;;;;;;1.57;1.10;;;5.60;99.90;;;;;;5022469;28;20861;-59
2021/01/29 03:46:59;;;;;;;1.33;1.03;;;5.60;99.90;;;;;;5030662;28;20433;-58
2021/01/29 03:49:39;;;;;;;1.10;1.00;;;5.70;99.90;;;;;;5024022;28;20430;-59
2021/01/29 03:52:42;;;;;;;1.00;0.90;;;5.70;99.90;;;;;;5024933;28;20861;-60
2021/01/29 03:55:14;;;;;;;0.73;0.73;;;5.70;99.90;;;;;;5035773;28;20457;-59
2021/01/29 03:58:09;;;;;;;1.10;1.10;;;5.70;99.90;;;;;;5029279;28;20454;-57
2021/01/29 04:00:49;;;;;;;0.93;0.93;;;5.70;99.90;;;;;;4999300;28;20793;-60
2021/01/29 04:03:20;;;;;;;3.20;1.97;;;5.70;99.90;;;;;;5024968;28;20431;-59
2021/01/29 04:06:04;;;;;;;2.60;1.50;;;5.60;99.90;;;;;;5027561;28;21182;-60
2021/01/29 04:08:43;;;;;;;2.80;2.20;;;5.60;99.90;;;;;;5033212;28;20426;-59
2021/01/29 04:11:15;;;;;;;4.27;2.40;;;5.60;99.90;;;;;;5029466;28;20436;-58
2021/01/29 04:13:45;;;;;;;1.57;1.03;;;5.60;99.90;;;;;;5027566;28;20424;-61
2021/01/29 04:16:16;;;;;;;0.77;0.77;;;5.60;99.90;;;;;;5020556;28;20906;-59
2021/01/29 04:18:47;;;;;;;0.90;0.90;;;5.60;99.90;;;;;;5030371;28;20490;-58
2021/01/29 04:21:13;;;;;;;0.93;0.90;;;5.60;99.90;;;;;;5029148;28;20456;-59
2021/01/29 04:23:43;;;;;;;1.10;0.70;;;5.50;99.90;;;;;;5031899;28;21009;-59
2021/01/29 04:26:23;;;;;;;0.97;0.90;;;5.60;99.90;;;;;;5019989;28;20249;-57
2021/01/29 04:28:54;;;;;;;4.10;1.30;;;5.60;99.90;;;;;;5021863;28;20426;-58
2021/01/29 04:31:23;;;;;;;0.80;0.80;;;5.60;99.90;;;;;;5030227;28;20940;-60
2021/01/29 04:33:53;;;;;;;1.00;0.90;;;5.60;99.90;;;;;;5021231;28;20894;-59
2021/01/29 04:36:22;;;;;;;1.00;1.00;;;5.60;99.90;;;;;;5021004;28;20481;-59
2021/01/29 04:38:54;;;;;;;2.90;1.00;;;5.60;99.90;;;;;;5028032;28;21039;-58
2021/01/29 04:41:43;;;;;;;1.30;1.00;;;5.60;99.90;;;;;;5012263;28;20474;-58
2021/01/29 04:44:35;;;;;;;0.90;0.90;;;5.60;99.90;;;;;;5025074;28;20558;-58
2021/01/29 04:47:00;;;;;;;0.90;0.90;;;5.60;99.90;;;;;;5030977;28;20886;-57
2021/01/29 04:49:43;;;;;;;0.90;0.90;;;5.60;99.90;;;;;;5031085;28;20525;-59
2021/01/29 04:52:39;;;;;;;0.80;0.80;;;5.60;99.90;;;;;;5027316;28;20180;-59
2021/01/29 04:55:32;;;;;;;1.37;0.70;;;5.60;99.90;;;;;;5032123;28;20465;-59
2021/01/29 04:58:18;;;;;;;0.60;0.60;;;5.60;99.90;;;;;;5028028;28;20449;-58
2021/01/29 05:00:48;;;;;;;0.80;0.80;;;5.70;99.90;;;;;;5024766;28;20431;-58
2021/01/29 05:03:28;;;;;;;1.10;0.80;;;5.60;99.90;;;;;;5023520;28;20953;-59
2021/01/29 05:06:39;;;;;;;1.23;0.70;;;5.60;99.90;;;;;;5026749;28;20437;-57
2021/01/29 05:09:28;;;;;;;0.70;0.60;;;5.60;99.90;;;;;;5026148;28;20472;-59
2021/01/29 05:12:21;;;;;;;0.70;0.70;;;5.70;99.90;;;;;;5043678;28;20445;-59
2021/01/29 05:15:08;;;;;;;0.80;0.80;;;5.60;99.90;;;;;;5047034;28;20502;-61
2021/01/29 05:17:54;;;;;;;0.70;0.70;;;5.60;99.90;;;;;;5038257;28;20470;-59
2021/01/29 05:20:34;;;;;;;0.83;0.83;;;5.70;99.90;;;;;;5025031;28;20487;-58
2021/01/29 05:23:06;;;;;;;0.80;0.80;;;5.70;99.90;;;;;;5022892;28;20463;-60
2021/01/29 05:25:56;;;;;;;1.73;0.80;;;5.60;99.90;;;;;;5025091;22;20484;-61
2021/01/29 05:28:57;;;;;;;0.77;0.70;;;5.70;99.90;;;;;;4985617;28;20816;-62
2021/01/29 05:31:46;;;;;;;0.73;0.73;;;5.70;99.90;;;;;;4908000;29;20449;-63
2021/01/29 05:34:32;;;;;;;3.50;1.03;;;5.70;99.90;;;;;;4986595;28;20934;-63
2021/01/29 05:37:07;;;;;;;3.50;0.70;;;5.60;99.90;;;;;;4989735;28;20471;-61
2021/01/29 05:39:35;;;;;;;1.40;1.00;;;5.60;99.90;;;;;;4987990;28;20436;-60
2021/01/29 05:42:31;;;;;;;1.00;1.00;;;5.70;99.90;;;;;;4992221;28;20852;-62
2021/01/29 05:45:24;;;;;;;0.80;0.80;;;5.60;99.90;;;;;;4991770;28;20455;-61
2021/01/29 05:47:55;;;;;;;0.83;0.83;;;5.60;99.90;;;;;;4991600;28;20523;-62
2021/01/29 05:50:40;;;;;;;1.37;1.00;;;5.60;99.90;;;;;;4987165;28;20440;-62
2021/01/29 05:53:25;;;;;;;5.50;0.90;;;5.60;99.90;;;;;;4985802;28;20489;-63
2021/01/29 05:56:15;;;;;;;1.50;1.13;;;5.60;99.90;;;;;;4982397;28;20828;-62
2021/01/29 05:59:09;;;;;;;1.10;0.70;;;5.60;99.90;;;;;;4986660;28;20944;-66
2021/01/29 06:01:41;;;;;;;0.90;0.90;;;5.60;99.90;;;;;;4981615;28;20457;-62
2021/01/29 06:04:44;;;;;;;1.00;0.90;;;5.60;99.90;;;;;;4974387;28;20478;-68
2021/01/29 06:07:47;;;;;;;1.10;1.00;;;5.60;99.90;;;;;;4982275;28;20431;-63
2021/01/29 06:10:37;;;;;;;2.00;1.27;;;5.60;99.90;;;;;;4986902;28;20435;-61
2021/01/29 06:13:14;;;;;;;1.27;1.20;;;5.60;99.90;;;;;;4988158;28;20433;-61
2021/01/29 06:16:12;;;;;;;0.90;0.90;;;5.60;99.90;;;;;;4982779;28;20457;-62
2021/01/29 06:19:05;;;;;;;1.43;1.10;;;5.60;99.90;;;;;;4974159;28;20543;-63
2021/01/29 06:21:40;;;;;;;0.90;0.90;;;5.60;99.90;;;;;;4966073;28;20923;-63
2021/01/29 06:24:37;;;;;;;1.77;1.00;;;5.60;99.90;;;;;;4977433;28;20435;-61
2021/01/29 06:27:26;;;;;;;1.10;1.00;;;5.60;99.90;;;;;;4983426;28;20962;-62
2021/01/29 06:30:27;;;;;;;1.00;0.90;;;5.60;99.90;;;;;;4970918;28;20779;-62
2021/01/29 06:33:03;;;;;;;1.00;1.00;;;5.60;99.90;;;;;;4978052;28;20435;-64
2021/01/29 06:35:53;;;;;;;1.10;1.00;;;5.60;99.90;;;;;;4956036;28;20450;-63
2021/01/29 06:38:26;;;;;;;1.53;1.33;;;5.60;99.90;;;;;;4975821;28;20471;-64
2021/01/29 06:41:20;;;;;;;1.93;1.10;;;5.60;99.90;;;;;;4960299;28;20537;-63
2021/01/29 06:44:37;;;;;;;0.60;0.60;;;5.60;99.90;;;;;;4974679;28;20515;-62
2021/01/29 06:47:08;;;;;;;0.80;0.80;;;5.80;99.90;;;;;;4936908;28;20490;-64
2021/01/29 06:49:39;;;;;;;0.80;0.80;;;6.00;99.90;;;;;;4976306;28;20420;-63
2021/01/29 06:52:24;;;;;;;0.70;0.70;;;6.10;99.90;;;;;;4960558;28;20444;-62
2021/01/29 06:55:09;;;;;;;1.07;0.80;;;6.30;99.90;;;;;;4967523;28;20459;-63
2021/01/29 06:58:02;;;;;;;0.90;0.90;;;6.40;99.90;;;;;;4960655;28;20840;-63
2021/01/29 07:00:46;;;;;;;1.43;0.97;;;6.40;99.90;;;;;;4977200;28;20428;-65
2021/01/29 07:03:42;;;;;;;0.90;0.73;;;6.40;99.90;;;;;;4956041;28;21240;-63
2021/01/29 07:06:16;;;;;;;1.07;0.80;;;6.40;99.90;;;;;;4968495;28;20448;-62
2021/01/29 07:08:55;;;;;;;0.80;0.80;;;6.40;99.90;;;;;;4978295;28;20500;-64
2021/01/29 07:11:26;;;;;;;2.07;0.80;;;6.40;99.90;;;;;;4973905;28;20477;-63
2021/01/29 07:13:58;;;;;;;0.60;0.60;;;6.40;99.90;;;;;;4978544;28;20424;-62
2021/01/29 07:17:02;;;;;;;0.60;0.60;;;6.40;99.90;;;;;;4959745;28;20456;-62
2021/01/29 07:19:30;;;;;;;0.77;0.77;;;6.40;99.90;;;;;;4977506;28;20495;-64
2021/01/29 07:22:09;;;;;;;1.17;0.83;;;6.30;99.90;;;;;;4958646;28;20433;-62
2021/01/29 07:24:41;;;;;;;0.77;0.70;;;6.30;99.90;;;;;;4963753;28;20689;-63
2021/01/29 07:27:33;;;;;;;0.97;0.90;;;6.30;99.90;;;;;;4976142;28;20529;-64
2021/01/29 07:30:13;;;;;;;0.80;0.80;;;6.30;99.90;;;;;;4984187;28;20432;-62
2021/01/29 07:32:47;;;;;;;0.90;0.90;;;6.30;99.90;;;;;;4956999;28;20479;-61
2021/01/29 07:35:35;;;;;;;0.70;0.70;;;6.30;99.90;;;;;;4948139;28;21011;-63
2021/01/29 07:38:20;;;;;;;2.57;1.63;;;6.30;99.90;;;;;;4952914;28;20460;-61
2021/01/29 07:40:57;;;;;;;1.33;0.90;;;6.20;99.90;;;;;;4981833;28;20494;-63
2021/01/29 07:43:31;;;;;;;0.97;0.70;;;6.20;99.90;;;;;;4962857;28;20439;-63
2021/01/29 07:46:02;;;;;;;0.70;0.70;;;6.20;99.90;;;;;;4966802;28;20455;-62
2021/01/29 07:48:59;;;;;;;0.70;0.70;;;6.20;99.90;;;;;;4968996;28;20819;-63
2021/01/29 07:51:49;;;;;;;0.60;0.60;;;6.20;99.90;;;;;;4962638;28;20467;-62
2021/01/29 07:54:26;;;;;;;0.70;0.70;;;6.20;99.90;;;;;;4968102;28;20487;-61
2021/01/29 07:57:05;;;;;;;0.80;0.80;;;6.20;99.90;;;;;;4984756;28;20471;-61
2021/01/29 07:59:55;;;;;;;0.70;0.70;;;6.20;99.90;;;;;;4959927;28;20439;-61
2021/01/29 08:02:54;;;;;;;3.17;0.90;;;6.30;99.90;;;;;;4975556;28;20443;-64
2021/01/29 08:05:59;;;;;;;0.80;0.80;;;6.30;99.90;;;;;;4980690;28;20479;-63
2021/01/29 08:08:29;;;;;;;1.47;0.80;;;6.30;99.90;;;;;;4964966;28;20467;-67
2021/01/29 08:10:58;;;;;;;1.00;0.90;;;6.30;99.90;;;;;;4958035;28;20539;-62
2021/01/29 08:13:40;;;;;;;0.70;0.70;;;6.40;99.90;;;;;;4980104;28;20455;-63
2021/01/29 08:16:31;;;;;;;0.90;0.83;;;6.40;99.90;;;;;;4979301;28;20480;-62
2021/01/29 08:19:21;;;;;;;1.67;0.80;;;6.40;99.90;;;;;;4970077;28;20447;-62
2021/01/29 08:21:52;;;;;;;0.93;0.80;;;6.40;99.90;;;;;;4982869;28;20459;-62
2021/01/29 08:24:39;;;;;;;1.57;1.00;;;6.40;99.90;;;;;;4977563;28;20469;-63
2021/01/29 08:27:42;;;;;;;1.03;1.03;;;6.40;99.90;;;;;;4981363;28;20591;-62
2021/01/29 08:30:43;;;;;;;1.17;1.00;;;6.30;99.90;;;;;;4960761;28;20837;-62
2021/01/29 08:33:24;;;;;;;1.53;1.07;;;6.30;99.90;;;;;;4981795;28;20440;-63
2021/01/29 08:35:53;;;;;;;2.00;1.17;;;6.30;99.90;;;;;;4966185;28;20500;-67
2021/01/29 08:38:56;;;;;;;2.90;1.20;;;6.30;99.90;;;;;;4975936;28;20471;-62
2021/01/29 08:41:28;;;;;;;1.13;0.93;;;6.30;99.90;;;;;;4979984;28;20950;-63
2021/01/29 08:44:16;;;;;;;2.60;1.30;;;6.30;99.90;;;;;;4978901;28;21026;-64
2021/01/29 08:46:47;;;;;;;1.67;1.40;;;6.30;99.90;;;;;;4981540;28;20499;-65
2021/01/29 08:49:16;;;;;;;1.67;1.50;;;6.30;99.90;;;;;;4976192;28;20488;-64
2021/01/29 08:51:49;;;;;;;3.60;1.87;;;6.30;99.90;;;;;;4982491;28;20495;-64
2021/01/29 08:54:35;;;;;;;1.77;1.37;;;6.30;99.90;;;;;;4980578;28;20440;-61
2021/01/29 08:57:14;;;;;;;2.00;1.20;;;6.30;99.90;;;;;;4978633;28;20559;-63
2021/01/29 08:59:41;;;;;;;1.60;1.07;;;6.30;99.90;;;;;;4960950;28;20954;-64
2021/01/29 09:02:09;;;;;;;2.03;1.00;;;6.30;99.90;;;;;;4961862;28;20440;-64
2021/01/29 09:04:51;;;;;;;2.10;0.83;;;6.30;99.90;;;;;;4977044;28;20535;-63
2021/01/29 09:07:27;;;;;;;1.60;1.10;;;6.40;99.90;;;;;;4980466;28;20656;-62
2021/01/29 09:10:04;;;;;;;1.57;1.23;;;6.30;99.90;;;;;;4973839;28;20435;-62
2021/01/29 09:12:32;;;;;;;1.10;1.00;;;6.40;99.90;;;;;;4979781;28;20452;-66
2021/01/29 09:15:24;;;;;;;1.97;1.10;;;6.40;99.90;;;;;;4978497;28;20474;-62
2021/01/29 09:17:58;;;;;;;1.40;1.30;;;6.40;99.90;;;;;;4977084;28;20468;-62
2021/01/29 09:20:27;;;;;;;1.30;1.20;;;6.40;99.90;;;;;;4961395;28;20472;-63
2021/01/29 09:23:09;;;;;;;1.00;1.00;;;6.40;99.90;;;;;;4977608;28;20499;-62
2021/01/29 09:25:54;;;;;;;3.30;1.93;;;6.40;99.90;;;;;;4959683;28;20835;-63
2021/01/29 09:28:36;;;;;;;2.50;1.90;;;6.40;99.90;;;;;;4976479;28;21239;-63
2021/01/29 09:31:14;;;;;;;2.37;1.90;;;6.40;99.90;;;;;;4978478;28;20924;-62
2021/01/29 09:33:49;;;;;;;3.90;2.27;;;6.50;99.90;;;;;;4979309;28;20435;-63
2021/01/29 09:36:20;;;;;;;2.67;1.93;;;6.50;99.90;;;;;;4981661;28;20499;-64
2021/01/29 09:38:49;;;;;;;6.33;3.37;;;6.60;99.90;;;;;;4978992;28;20432;-63
2021/01/29 09:41:24;;;;;;;3.73;2.60;;;6.70;99.90;;;;;;4977910;28;20857;-65
2021/01/29 09:44:19;;;;;;;3.30;2.60;;;6.90;99.90;;;;;;4961838;28;20444;-63
2021/01/29 09:46:46;;;;;;;2.47;1.80;;;7.10;99.90;;;;;;4981816;28;20570;-64
2021/01/29 09:49:17;;;;;;;1.57;1.40;;;7.30;99.90;;;;;;4975179;28;20963;-63
2021/01/29 09:51:58;;;;;;;1.73;1.60;;;7.30;99.90;;;;;;4979744;28;20440;-63
2021/01/29 09:54:33;;;;;;;1.30;1.20;;;7.40;99.90;;;;;;4979663;28;20456;-64
2021/01/29 09:57:09;;;;;;;0.80;0.80;;;7.40;99.90;;;;;;4978547;28;20500;-65
2021/01/29 10:00:02;;;;;;;0.90;0.90;;;7.40;99.90;;;;;;4976218;28;20558;-63
2021/01/29 10:02:43;;;;;;;2.03;1.00;;;7.40;99.90;;;;;;4942601;28;20472;-65
2021/01/29 10:05:15;;;;;;;1.80;1.20;;;7.40;99.90;;;;;;4984644;28;21045;-64
2021/01/29 10:07:54;;;;;;;1.30;1.10;;;7.30;99.90;;;;;;4979084;28;20436;-64
2021/01/29 10:10:50;;;;;;;2.60;1.50;;;7.30;99.90;;;;;;4979981;28;20452;-65
2021/01/29 10:13:40;;;;;;;1.83;1.10;;;7.20;99.90;;;;;;4983263;28;20546;-64
2021/01/29 10:16:27;;;;;;;2.03;1.33;;;7.10;99.90;;;;;;4979336;28;21052;-63
2021/01/29 10:19:08;;;;;;;1.37;1.03;;;7.00;99.90;;;;;;4977614;28;21034;-63
2021/01/29 10:21:58;;;;;;;1.17;0.83;;;6.90;99.90;;;;;;4981881;28;20436;-66
2021/01/29 10:24:52;;;;;;;0.80;0.80;;;6.90;99.90;;;;;;4976862;28;20453;-64
2021/01/29 10:27:25;;;;;;;1.17;1.00;;;6.90;99.90;;;;;;4968622;28;20436;-63
2021/01/29 10:30:14;;;;;;;0.93;0.83;;;7.10;99.90;;;;;;4966865;28;20436;-61
2021/01/29 10:32:52;;;;;;;2.00;1.10;;;7.30;99.90;;;;;;4977475;28;20445;-62
2021/01/29 10:35:43;;;;;;;2.30;1.00;;;7.40;99.90;;;;;;4976041;28;20465;-63
2021/01/29 10:38:26;;;;;;;1.00;1.00;;;7.50;99.90;;;;;;4963430;28;20460;-63
2021/01/29 10:41:07;;;;;;;3.50;1.20;;;7.70;99.90;;;;;;4968216;28;20440;-63
2021/01/29 10:43:41;;;;;;;0.90;0.90;;;7.80;99.90;;;;;;4980990;28;20510;-61
2021/01/29 10:46:16;;;;;;;0.70;0.70;;;7.80;99.90;;;;;;4970264;28;20530;-60
2021/01/29 10:49:15;;;;;;;1.73;0.80;;;7.90;99.90;;;;;;4979330;28;20427;-63
2021/01/29 10:51:47;;;;;;;0.97;0.87;;;7.90;99.90;;;;;;4980046;28;20416;-63
2021/01/29 10:54:14;;;;;;;1.20;0.90;;;7.90;99.90;;;;;;4980261;28;20432;-62
2021/01/29 10:56:52;;;;;;;1.23;0.93;;;7.90;99.90;;;;;;4981300;28;20850;-62
2021/01/29 10:59:34;;;;;;;0.97;0.97;;;7.80;99.90;;;;;;4968816;28;20519;-61
2021/01/29 11:02:07;;;;;;;2.07;1.40;;;7.70;99.90;;;;;;4977435;28;20814;-60
2021/01/29 11:04:56;;;;;;;2.83;0.87;;;7.60;99.90;;;;;;4980433;28;20500;-61
2021/01/29 11:07:30;;;;;;;3.57;1.30;;;7.50;99.90;;;;;;4986422;28;20816;-62
2021/01/29 11:10:19;;;;;;;1.23;1.10;;;7.40;99.90;;;;;;4982557;28;20435;-61
2021/01/29 11:13:00;;;;;;;1.00;1.00;;;7.20;99.90;;;;;;4986614;28;20443;-61
2021/01/29 11:15:51;;;;;;;5.50;2.63;;;7.20;99.90;;;;;;4988214;28;20459;-62
2021/01/29 11:18:57;;;;;;;1.33;0.90;;;7.10;99.90;;;;;;4974008;28;20888;-61
2021/01/29 11:21:55;;;;;;;1.20;1.10;;;7.10;99.90;;;;;;4952180;28;20962;-61
2021/01/29 11:27:04;;;;;;;1.80;0.80;;;7.10;99.90;;;;;;5072193;23;20485;-60
2021/01/29 11:29:57;;;;;;;2.50;1.20;;;7.30;99.90;;;;;;5047605;28;20429;-58
2021/01/29 11:32:28;;;;;;;1.13;1.03;;;7.40;99.90;;;;;;5040682;28;20429;-59
2021/01/29 11:35:14;;;;;;;4.23;1.30;;;7.50;99.90;;;;;;5041523;28;20468;-59
2021/01/29 11:37:55;;;;;;;1.23;1.13;;;7.50;99.90;;;;;;5046030;28;20445;-59
2021/01/29 11:40:29;;;;;;;1.20;1.10;;;7.60;99.90;;;;;;5045046;28;20444;-58
2021/01/29 11:43:27;;;;;;;1.20;1.10;;;8.00;99.90;;;;;;5051199;28;20520;-59
2021/01/29 11:45:58;;;;;;;1.17;0.83;;;8.60;99.90;;;;;;5040538;28;20449;-59
2021/01/29 11:48:39;;;;;;;1.03;1.00;;;9.10;99.90;;;;;;5055210;28;20440;-58
2021/01/29 11:51:22;;;;;;;1.20;0.93;;;9.40;99.90;;;;;;5040978;28;20434;-59
2021/01/29 11:54:15;;;;;;;1.10;1.00;;;9.70;99.10;;;;;;5043935;28;20767;-58
2021/01/29 11:57:04;;;;;;;1.00;0.90;;;9.70;99.70;;;;;;5046736;28;20819;-57
2021/01/29 11:59:50;;;;;;;1.20;0.80;;;10.00;97.70;;;;;;5042498;28;20429;-58
2021/01/29 12:02:33;;;;;;;1.20;0.70;;;10.40;95.60;;;;;;5043025;28;20440;-58
2021/01/29 12:05:14;;;;;;;0.80;0.80;;;10.60;91.70;;;;;;5042492;28;20445;-60
2021/01/29 12:07:49;;;;;;;0.63;0.63;;;11.10;92.40;;;;;;5035485;28;20453;-58
2021/01/29 12:10:32;;;;;;;0.80;0.80;;;11.10;89.90;;;;;;5041340;28;20440;-57
2021/01/29 12:13:08;;;;;;;0.67;0.67;;;11.40;90.10;;;;;;5036872;28;20529;-57
2021/01/29 12:15:48;;;;;;;1.37;0.83;;;11.90;87.20;;;;;;5034369;28;20548;-58
2021/01/29 12:18:17;;;;;;;1.33;0.73;;;12.10;80.10;;;;;;5040714;28;20566;-58
2021/01/29 12:20:44;;;;;;;1.27;0.70;;;12.30;80.30;;;;;;5042625;28;20454;-59
2021/01/29 12:23:47;;;;;;;0.70;0.70;;;12.00;79.50;;;;;;5042264;28;20845;-57
2021/01/29 12:26:15;;;;;;;0.80;0.80;;;11.40;83.00;;;;;;5043554;28;20507;-59
2021/01/29 12:29:13;;;;;;;4.27;1.00;;;10.70;89.00;;;;;;5044640;28;20476;-58
2021/01/29 12:31:57;;;;;;;1.53;1.10;;;10.10;89.70;;;;;;5030738;28;20427;-59
2021/01/29 12:34:42;;;;;;;3.13;1.00;;;9.60;93.20;;;;;;5035184;28;20449;-58
2021/01/29 12:37:17;;;;;;;7.33;1.00;;;9.20;95.20;;;;;;5037266;28;20577;-63
2021/01/29 12:40:26;;;;;;;1.53;0.93;;;8.90;96.30;;;;;;5032627;28;20435;-61
2021/01/29 12:43:01;;;;;;;1.10;1.00;;;8.60;96.50;;;;;;5004649;28;20480;-63
2021/01/29 12:45:48;;;;;;;2.00;1.40;;;8.30;97.40;;;;;;5038283;28;20489;-63
2021/01/29 12:48:54;;;;;;;3.07;1.30;;;8.10;98.60;;;;;;5036670;28;20453;-64
2021/01/29 12:51:42;;;;;;;2.97;1.27;;;7.90;99.70;;;;;;5035792;28;20464;-62
2021/01/29 12:54:17;;;;;;;5.53;2.10;;;7.60;99.90;;;;;;5037939;28;20441;-62
2021/01/29 12:57:00;;;;;;;2.10;1.53;;;7.40;99.90;;;;;;5028604;28;20472;-59
2021/01/29 12:59:49;;;;;;;1.63;1.20;;;7.30;99.90;;;;;;5035548;28;20934;-60
2021/01/29 13:02:28;;;;;;;1.00;0.87;;;7.10;99.90;;;;;;5032255;28;20434;-60
2021/01/29 13:05:11;;;;;;;1.03;0.90;;;6.90;99.90;;;;;;5037432;28;20453;-59
2021/01/29 13:08:09;;;;;;;0.93;0.83;;;6.70;99.90;;;;;;5033165;28;20539;-58
2021/01/29 13:10:44;;;;;;;0.77;0.77;;;6.50;99.90;;;;;;5022496;28;20438;-58
2021/01/29 13:13:30;;;;;;;0.70;0.70;;;6.50;99.90;;;;;;5039971;28;20435;-58
2021/01/29 13:16:18;;;;;;;1.07;0.80;;;6.40;99.90;;;;;;5038711;28;20461;-58
2021/01/29 13:18:47;;;;;;;0.77;0.77;;;6.40;99.90;;;;;;5043151;28;20536;-58
2021/01/29 13:21:55;;;;;;;2.40;0.90;;;6.40;99.90;;;;;;5039291;28;20429;-58
2021/01/29 13:24:29;;;;;;;4.00;0.93;;;6.50;99.90;;;;;;5034501;28;20448;-58
2021/01/29 13:26:59;;;;;;;0.90;0.90;;;6.60;99.90;;;;;;5039765;28;20492;-59
2021/01/29 13:29:28;;;;;;;2.13;1.10;;;6.80;99.90;;;;;;5042062;28;20433;-59
2021/01/29 13:31:58;;;;;;;1.33;1.17;;;7.00;99.90;;;;;;5039470;28;20433;-59
2021/01/29 13:34:29;;;;;;;0.90;0.90;;;7.10;99.90;;;;;;5032302;28;20794;-62
2021/01/29 13:37:26;;;;;;;3.10;1.10;;;7.30;99.90;;;;;;5035232;28;20713;-60
2021/01/29 13:40:22;;;;;;;1.10;0.80;;;7.40;99.90;;;;;;5031057;28;20472;-59
2021/01/29 13:42:49;;;;;;;1.37;1.00;;;7.50;99.90;;;;;;5039208;28;20468;-57
2021/01/29 13:45:26;;;;;;;1.60;1.30;;;7.70;99.90;;;;;;5035619;28;20487;-59
2021/01/29 13:48:15;;;;;;;0.80;0.80;;;8.00;99.90;;;;;;5044054;28;20508;-60
2021/01/29 13:50:44;;;;;;;0.70;0.70;;;8.40;99.90;;;;;;5040359;28;20425;-58
2021/01/29 13:53:29;;;;;;;2.00;0.80;;;8.70;99.90;;;;;;5044353;28;20841;-60
2021/01/29 13:56:06;;;;;;;0.80;0.80;;;8.80;99.20;;;;;;5032313;28;20591;-60
2021/01/29 13:58:49;;;;;;;2.30;1.43;;;9.10;99.90;;;;;;5040556;28;20555;-60
2021/01/29 14:01:30;;;;;;;1.53;1.07;;;10.00;98.10;;;;;;5032019;28;20441;-58